sensor_id;sensor_type;location;lat;lon;timestamp;pressure;altitude;pressure_sealevel;temperature;humidity
9525;BME280;15940;48.734;9.112;2023-08-06T00:00:46;95846.00;;;14.62;92.97
9525;BME280;15940;48.734;9.112;2023-08-06T00:03:14;95848.00;;;14.62;93.66
9525;BME280;15940;48.734;9.112;2023-08-06T00:05:41;95846.31;;;14.58;93.51
9525;BME280;15940;48.734;9.112;2023-08-06T00:08:10;95834.38;;;14.62;93.84
9525;BME280;15940;48.734;9.112;2023-08-06T00:10:39;95834.91;;;14.60;93.45
9525;BME280;15940;48.734;9.112;2023-08-06T00:13:06;95828.94;;;14.62;93.43
9525;BME280;15940;48.734;9.112;2023-08-06T00:15:33;95825.66;;;14.63;93.58
9525;BME280;15940;48.734;9.112;2023-08-06T00:18:00;95822.00;;;14.61;94.53
9525;BME280;15940;48.734;9.112;2023-08-06T00:20:27;95826.28;;;14.69;93.90
9525;BME280;15940;48.734;9.112;2023-08-06T00:22:54;95824.78;;;14.68;92.42
9525;BME280;15940;48.734;9.112;2023-08-06T00:25:22;95839.47;;;14.65;93.48
9525;BME280;15940;48.734;9.112;2023-08-06T00:27:49;95839.38;;;14.71;93.30
9525;BME280;15940;48.734;9.112;2023-08-06T00:30:16;95827.19;;;14.72;93.50
9525;BME280;15940;48.734;9.112;2023-08-06T00:32:43;95824.13;;;14.75;92.56
9525;BME280;15940;48.734;9.112;2023-08-06T00:35:10;95817.41;;;14.76;92.03
9525;BME280;15940;48.734;9.112;2023-08-06T00:37:39;95816.28;;;14.72;91.35
9525;BME280;15940;48.734;9.112;2023-08-06T00:40:09;95819.75;;;14.72;90.34
9525;BME280;15940;48.734;9.112;2023-08-06T00:42:38;95809.38;;;14.71;90.72
9525;BME280;15940;48.734;9.112;2023-08-06T00:45:06;95810.13;;;14.71;89.09
9525;BME280;15940;48.734;9.112;2023-08-06T00:47:33;95805.50;;;14.66;89.32
9525;BME280;15940;48.734;9.112;2023-08-06T00:50:08;95799.69;;;14.62;87.20
9525;BME280;15940;48.734;9.112;2023-08-06T00:52:35;95798.75;;;14.60;90.22
9525;BME280;15940;48.734;9.112;2023-08-06T00:55:06;95791.09;;;14.58;88.84
9525;BME280;15940;48.734;9.112;2023-08-06T00:57:37;95786.63;;;14.47;88.62
9525;BME280;15940;48.734;9.112;2023-08-06T01:00:08;95796.59;;;14.45;89.32
9525;BME280;15940;48.734;9.112;2023-08-06T01:02:40;95791.22;;;14.52;87.43
9525;BME280;15940;48.734;9.112;2023-08-06T01:05:07;95791.56;;;14.36;87.79
9525;BME280;15940;48.734;9.112;2023-08-06T01:07:48;95789.25;;;14.40;88.48
9525;BME280;15940;48.734;9.112;2023-08-06T01:10:32;95791.88;;;14.45;88.35
9525;BME280;15940;48.734;9.112;2023-08-06T01:13:16;95789.03;;;14.51;89.73
9525;BME280;15940;48.734;9.112;2023-08-06T01:15:50;95781.44;;;14.57;89.13
9525;BME280;15940;48.734;9.112;2023-08-06T01:18:19;95778.34;;;14.53;87.84
9525;BME280;15940;48.734;9.112;2023-08-06T01:20:48;95779.25;;;14.55;88.10
9525;BME280;15940;48.734;9.112;2023-08-06T01:23:15;95781.63;;;14.59;88.11
9525;BME280;15940;48.734;9.112;2023-08-06T01:25:53;95778.75;;;14.44;86.34
9525;BME280;15940;48.734;9.112;2023-08-06T01:28:32;95783.53;;;14.30;87.28
9525;BME280;15940;48.734;9.112;2023-08-06T01:31:10;95776.25;;;14.12;87.81
9525;BME280;15940;48.734;9.112;2023-08-06T01:33:44;95780.78;;;14.09;89.44
9525;BME280;15940;48.734;9.112;2023-08-06T01:36:16;95778.91;;;14.04;89.00
9525;BME280;15940;48.734;9.112;2023-08-06T01:38:43;95761.44;;;13.99;89.65
9525;BME280;15940;48.734;9.112;2023-08-06T01:41:10;95767.00;;;13.94;90.41
9525;BME280;15940;48.734;9.112;2023-08-06T01:43:37;95763.03;;;13.95;90.00
9525;BME280;15940;48.734;9.112;2023-08-06T01:46:04;95768.34;;;14.00;90.15
9525;BME280;15940;48.734;9.112;2023-08-06T01:48:34;95769.41;;;13.97;88.99
9525;BME280;15940;48.734;9.112;2023-08-06T01:51:05;95768.88;;;13.99;91.50
9525;BME280;15940;48.734;9.112;2023-08-06T01:53:34;95767.84;;;13.89;89.65
9525;BME280;15940;48.734;9.112;2023-08-06T01:56:01;95763.66;;;13.88;89.52
9525;BME280;15940;48.734;9.112;2023-08-06T01:58:42;95765.47;;;13.72;88.54
9525;BME280;15940;48.734;9.112;2023-08-06T02:01:09;95763.72;;;13.61;88.90
9525;BME280;15940;48.734;9.112;2023-08-06T02:03:36;95742.56;;;13.54;90.17
9525;BME280;15940;48.734;9.112;2023-08-06T02:06:03;95742.16;;;13.50;90.84
9525;BME280;15940;48.734;9.112;2023-08-06T02:08:30;95743.72;;;13.59;91.47
9525;BME280;15940;48.734;9.112;2023-08-06T02:11:01;95739.34;;;13.56;90.86
9525;BME280;15940;48.734;9.112;2023-08-06T02:13:31;95728.25;;;13.54;90.02
9525;BME280;15940;48.734;9.112;2023-08-06T02:16:01;95727.44;;;13.46;90.76
9525;BME280;15940;48.734;9.112;2023-08-06T02:18:27;95727.22;;;13.43;89.89
9525;BME280;15940;48.734;9.112;2023-08-06T02:21:01;95724.19;;;13.34;89.89
9525;BME280;15940;48.734;9.112;2023-08-06T02:23:30;95725.88;;;13.37;90.94
9525;BME280;15940;48.734;9.112;2023-08-06T02:26:03;95703.78;;;13.40;92.71
9525;BME280;15940;48.734;9.112;2023-08-06T02:28:31;95702.56;;;13.28;89.76
9525;BME280;15940;48.734;9.112;2023-08-06T02:31:00;95706.63;;;13.35;91.81
9525;BME280;15940;48.734;9.112;2023-08-06T02:33:30;95702.34;;;13.39;91.78
9525;BME280;15940;48.734;9.112;2023-08-06T02:36:00;95692.41;;;13.29;89.31
9525;BME280;15940;48.734;9.112;2023-08-06T02:38:29;95692.41;;;13.29;91.78
9525;BME280;15940;48.734;9.112;2023-08-06T02:40:56;95693.25;;;13.24;90.76
9525;BME280;15940;48.734;9.112;2023-08-06T02:43:24;95680.69;;;13.21;89.58
9525;BME280;15940;48.734;9.112;2023-08-06T02:45:51;95690.72;;;13.12;89.53
9525;BME280;15940;48.734;9.112;2023-08-06T02:48:21;95682.69;;;13.20;91.67
9525;BME280;15940;48.734;9.112;2023-08-06T02:50:50;95678.91;;;13.23;91.69
9525;BME280;15940;48.734;9.112;2023-08-06T02:53:17;95678.19;;;13.23;89.81
9525;BME280;15940;48.734;9.112;2023-08-06T02:55:46;95670.84;;;13.18;90.81
9525;BME280;15940;48.734;9.112;2023-08-06T02:58:17;95666.03;;;13.10;89.70
9525;BME280;15940;48.734;9.112;2023-08-06T03:00:59;95668.75;;;12.97;89.08
9525;BME280;15940;48.734;9.112;2023-08-06T03:03:37;95669.59;;;13.05;91.43
9525;BME280;15940;48.734;9.112;2023-08-06T03:06:04;95664.88;;;13.06;88.95
9525;BME280;15940;48.734;9.112;2023-08-06T03:08:31;95666.03;;;13.10;89.64
9525;BME280;15940;48.734;9.112;2023-08-06T03:10:58;95658.94;;;13.21;89.31
9525;BME280;15940;48.734;9.112;2023-08-06T03:13:28;95672.13;;;13.30;89.98
9525;BME280;15940;48.734;9.112;2023-08-06T03:15:58;95659.44;;;13.32;90.35
9525;BME280;15940;48.734;9.112;2023-08-06T03:18:28;95651.81;;;13.31;88.49
9525;BME280;15940;48.734;9.112;2023-08-06T03:20:55;95654.31;;;13.42;89.65
9525;BME280;15940;48.734;9.112;2023-08-06T03:23:22;95652.19;;;13.48;89.13
9525;BME280;15940;48.734;9.112;2023-08-06T03:25:49;95654.59;;;13.52;87.92
9525;BME280;15940;48.734;9.112;2023-08-06T03:28:18;95649.69;;;13.50;89.54
9525;BME280;15940;48.734;9.112;2023-08-06T03:30:45;95652.19;;;13.48;89.01
9525;BME280;15940;48.734;9.112;2023-08-06T03:33:13;95649.75;;;13.58;88.53
9525;BME280;15940;48.734;9.112;2023-08-06T03:35:40;95657.31;;;13.52;87.58
9525;BME280;15940;48.734;9.112;2023-08-06T03:38:07;95656.94;;;13.68;88.69
9525;BME280;15940;48.734;9.112;2023-08-06T03:40:35;95648.00;;;13.81;88.16
9525;BME280;15940;48.734;9.112;2023-08-06T03:43:08;95642.97;;;13.85;85.98
9525;BME280;15940;48.734;9.112;2023-08-06T03:45:36;95646.81;;;13.90;85.70
9525;BME280;15940;48.734;9.112;2023-08-06T03:48:04;95644.09;;;13.90;85.02
9525;BME280;15940;48.734;9.112;2023-08-06T03:50:32;95649.81;;;13.99;84.87
9525;BME280;15940;48.734;9.112;2023-08-06T03:52:59;95646.22;;;14.05;86.37
9525;BME280;15940;48.734;9.112;2023-08-06T03:55:26;95640.84;;;14.12;85.60
9525;BME280;15940;48.734;9.112;2023-08-06T03:57:53;95638.50;;;14.16;85.55
9525;BME280;15940;48.734;9.112;2023-08-06T04:00:20;95650.13;;;14.17;85.31
9525;BME280;15940;48.734;9.112;2023-08-06T04:02:47;95645.28;;;14.23;85.02
9525;BME280;15940;48.734;9.112;2023-08-06T04:05:14;95636.16;;;14.20;84.76
9525;BME280;15940;48.734;9.112;2023-08-06T04:07:44;95640.56;;;14.23;85.26
9525;BME280;15940;48.734;9.112;2023-08-06T04:10:11;95642.31;;;14.13;83.85
9525;BME280;15940;48.734;9.112;2023-08-06T04:12:38;95647.75;;;14.13;84.55
9525;BME280;15940;48.734;9.112;2023-08-06T04:15:08;95651.13;;;14.06;84.28
9525;BME280;15940;48.734;9.112;2023-08-06T04:17:35;95659.31;;;14.06;84.97
9525;BME280;15940;48.734;9.112;2023-08-06T04:20:03;95663.88;;;14.11;86.34
9525;BME280;15940;48.734;9.112;2023-08-06T04:22:30;95660.66;;;14.13;85.08
9525;BME280;15940;48.734;9.112;2023-08-06T04:24:59;95664.88;;;14.00;84.91
9525;BME280;15940;48.734;9.112;2023-08-06T04:27:25;95659.56;;;13.95;84.68
9525;BME280;15940;48.734;9.112;2023-08-06T04:29:53;95663.69;;;13.88;85.99
9525;BME280;15940;48.734;9.112;2023-08-06T04:32:20;95665.75;;;13.95;87.18
9525;BME280;15940;48.734;9.112;2023-08-06T04:34:47;95661.84;;;14.04;87.20
9525;BME280;15940;48.734;9.112;2023-08-06T04:37:17;95669.28;;;14.04;86.46
9525;BME280;15940;48.734;9.112;2023-08-06T04:39:47;95670.94;;;14.07;86.51
9525;BME280;15940;48.734;9.112;2023-08-06T04:42:17;95679.47;;;14.11;86.09
9525;BME280;15940;48.734;9.112;2023-08-06T04:44:47;95676.09;;;14.18;86.26
9525;BME280;15940;48.734;9.112;2023-08-06T04:47:14;95678.22;;;14.12;85.28
9525;BME280;15940;48.734;9.112;2023-08-06T04:49:41;95675.66;;;14.06;85.86
9525;BME280;15940;48.734;9.112;2023-08-06T04:52:08;95666.56;;;14.04;86.05
9525;BME280;15940;48.734;9.112;2023-08-06T04:54:35;95677.63;;;14.06;86.28
9525;BME280;15940;48.734;9.112;2023-08-06T04:57:02;95685.59;;;14.04;85.56
9525;BME280;15940;48.734;9.112;2023-08-06T04:59:34;95690.63;;;13.99;86.07
9525;BME280;15940;48.734;9.112;2023-08-06T05:02:01;95692.19;;;14.08;87.55
9525;BME280;15940;48.734;9.112;2023-08-06T05:04:28;95687.53;;;14.16;87.11
9525;BME280;15940;48.734;9.112;2023-08-06T05:06:55;95683.88;;;14.14;87.40
9525;BME280;15940;48.734;9.112;2023-08-06T05:09:22;95690.78;;;14.15;87.96
9525;BME280;15940;48.734;9.112;2023-08-06T05:11:49;95680.28;;;14.19;87.88
9525;BME280;15940;48.734;9.112;2023-08-06T05:14:16;95678.56;;;14.08;88.78
9525;BME280;15940;48.734;9.112;2023-08-06T05:16:45;95676.50;;;14.01;87.71
9525;BME280;15940;48.734;9.112;2023-08-06T05:19:17;95678.81;;;13.97;87.85
9525;BME280;15940;48.734;9.112;2023-08-06T05:21:46;95678.28;;;13.98;87.84
9525;BME280;15940;48.734;9.112;2023-08-06T05:24:13;95669.50;;;13.92;87.06
9525;BME280;15940;48.734;9.112;2023-08-06T05:26:43;95669.78;;;14.02;87.12
9525;BME280;15940;48.734;9.112;2023-08-06T05:29:16;95669.28;;;14.04;86.81
9525;BME280;15940;48.734;9.112;2023-08-06T05:31:45;95665.03;;;14.16;86.50
9525;BME280;15940;48.734;9.112;2023-08-06T05:34:15;95680.44;;;14.34;86.49
9525;BME280;15940;48.734;9.112;2023-08-06T05:36:42;95680.81;;;14.38;85.73
9525;BME280;15940;48.734;9.112;2023-08-06T05:39:09;95684.78;;;14.37;82.79
9525;BME280;15940;48.734;9.112;2023-08-06T05:41:38;95692.06;;;14.35;85.25
9525;BME280;15940;48.734;9.112;2023-08-06T05:44:08;95691.38;;;14.42;84.80
9525;BME280;15940;48.734;9.112;2023-08-06T05:46:35;95695.03;;;14.44;85.30
9525;BME280;15940;48.734;9.112;2023-08-06T05:49:03;95700.28;;;14.42;83.00
9525;BME280;15940;48.734;9.112;2023-08-06T05:51:33;95694.13;;;14.42;83.69
9525;BME280;15940;48.734;9.112;2023-08-06T05:54:00;95702.59;;;14.38;83.11
9525;BME280;15940;48.734;9.112;2023-08-06T05:56:27;95708.59;;;14.37;84.01
9525;BME280;15940;48.734;9.112;2023-08-06T05:58:54;95700.41;;;14.37;82.68
9525;BME280;15940;48.734;9.112;2023-08-06T06:01:22;95706.06;;;14.39;84.59
9525;BME280;15940;48.734;9.112;2023-08-06T06:03:49;95705.66;;;14.35;84.93
9525;BME280;15940;48.734;9.112;2023-08-06T06:06:23;95710.19;;;14.32;83.79
9525;BME280;15940;48.734;9.112;2023-08-06T06:08:52;95707.97;;;14.30;85.55
9525;BME280;15940;48.734;9.112;2023-08-06T06:11:19;95704.75;;;14.32;85.62
9525;BME280;15940;48.734;9.112;2023-08-06T06:13:51;95706.31;;;14.27;84.62
9525;BME280;15940;48.734;9.112;2023-08-06T06:16:18;95715.22;;;14.28;85.13
9525;BME280;15940;48.734;9.112;2023-08-06T06:18:48;95709.19;;;14.22;85.08
9525;BME280;15940;48.734;9.112;2023-08-06T06:21:15;95711.59;;;14.25;84.50
9525;BME280;15940;48.734;9.112;2023-08-06T06:24:01;95721.13;;;14.19;84.43
9525;BME280;15940;48.734;9.112;2023-08-06T06:26:28;95723.28;;;14.13;84.32
9525;BME280;15940;48.734;9.112;2023-08-06T06:28:55;95723.47;;;14.15;85.19
9525;BME280;15940;48.734;9.112;2023-08-06T06:31:22;95733.72;;;14.22;85.90
9525;BME280;15940;48.734;9.112;2023-08-06T06:33:49;95734.56;;;14.17;84.56
9525;BME280;15940;48.734;9.112;2023-08-06T06:36:20;95727.75;;;14.10;86.34
9525;BME280;15940;48.734;9.112;2023-08-06T06:38:47;95737.94;;;14.10;86.34
9525;BME280;15940;48.734;9.112;2023-08-06T06:41:16;95738.00;;;14.17;87.08
9525;BME280;15940;48.734;9.112;2023-08-06T06:43:43;95744.91;;;14.18;86.40
9525;BME280;15940;48.734;9.112;2023-08-06T06:46:10;95738.34;;;14.14;85.67
9525;BME280;15940;48.734;9.112;2023-08-06T06:48:37;95739.00;;;14.07;86.74
9525;BME280;15940;48.734;9.112;2023-08-06T06:51:04;95735.00;;;14.08;86.30
9525;BME280;15940;48.734;9.112;2023-08-06T06:53:31;95735.00;;;14.08;86.43
9525;BME280;15940;48.734;9.112;2023-08-06T06:56:02;95737.78;;;13.94;88.14
9525;BME280;15940;48.734;9.112;2023-08-06T06:58:34;95739.06;;;13.93;88.38
9525;BME280;15940;48.734;9.112;2023-08-06T07:01:01;95735.66;;;14.00;89.27
9525;BME280;15940;48.734;9.112;2023-08-06T07:03:28;95733.38;;;13.91;89.83
9525;BME280;15940;48.734;9.112;2023-08-06T07:05:58;95733.44;;;13.78;89.65
9525;BME280;15940;48.734;9.112;2023-08-06T07:08:25;95732.69;;;13.78;90.37
9525;BME280;15940;48.734;9.112;2023-08-06T07:13:29;95740.78;;;13.70;91.79
9525;BME280;15940;48.734;9.112;2023-08-06T07:15:56;95742.84;;;13.77;91.91
9525;BME280;15940;48.734;9.112;2023-08-06T07:18:24;95746.56;;;13.66;92.28
9525;BME280;15940;48.734;9.112;2023-08-06T07:20:52;95741.84;;;13.67;92.84
9525;BME280;15940;48.734;9.112;2023-08-06T07:23:21;95738.50;;;13.61;92.35
9525;BME280;15940;48.734;9.112;2023-08-06T07:25:51;95753.16;;;13.58;93.68
9525;BME280;15940;48.734;9.112;2023-08-06T07:28:18;95755.44;;;13.54;93.66
9525;BME280;15940;48.734;9.112;2023-08-06T07:30:47;95753.06;;;13.50;93.95
9525;BME280;15940;48.734;9.112;2023-08-06T07:33:16;95750.84;;;13.62;94.97
9525;BME280;15940;48.734;9.112;2023-08-06T07:35:43;95748.31;;;13.64;93.41
9525;BME280;15940;48.734;9.112;2023-08-06T07:38:12;95752.91;;;13.69;93.67
9525;BME280;15940;48.734;9.112;2023-08-06T07:40:40;95756.03;;;13.73;93.36
9525;BME280;15940;48.734;9.112;2023-08-06T07:43:09;95744.13;;;13.76;93.90
9525;BME280;15940;48.734;9.112;2023-08-06T07:45:37;95744.72;;;13.82;93.44
9525;BME280;15940;48.734;9.112;2023-08-06T07:48:08;95746.06;;;13.89;93.78
9525;BME280;15940;48.734;9.112;2023-08-06T07:50:35;95745.97;;;13.94;93.41
9525;BME280;15940;48.734;9.112;2023-08-06T07:53:05;95739.00;;;14.07;94.32
9525;BME280;15940;48.734;9.112;2023-08-06T07:55:35;95750.53;;;14.34;94.85
9525;BME280;15940;48.734;9.112;2023-08-06T07:58:05;95748.94;;;14.59;92.67
9525;BME280;15940;48.734;9.112;2023-08-06T08:00:32;95745.91;;;14.63;91.06
9525;BME280;15940;48.734;9.112;2023-08-06T08:02:59;95743.63;;;14.74;90.83
9525;BME280;15940;48.734;9.112;2023-08-06T08:05:27;95751.78;;;14.74;89.92
9525;BME280;15940;48.734;9.112;2023-08-06T08:07:54;95748.22;;;14.79;88.54
9525;BME280;15940;48.734;9.112;2023-08-06T08:10:21;95745.44;;;14.72;88.89
9525;BME280;15940;48.734;9.112;2023-08-06T08:12:48;95748.09;;;14.64;87.79
9525;BME280;15940;48.734;9.112;2023-08-06T08:15:15;95753.78;;;14.74;89.63
9525;BME280;15940;48.734;9.112;2023-08-06T08:17:43;95752.53;;;14.54;88.17
9525;BME280;15940;48.734;9.112;2023-08-06T08:20:11;95755.66;;;14.58;90.33
9525;BME280;15940;48.734;9.112;2023-08-06T08:22:39;95747.09;;;14.54;89.92
9525;BME280;15940;48.734;9.112;2023-08-06T08:25:06;95744.06;;;14.44;89.71
9525;BME280;15940;48.734;9.112;2023-08-06T08:27:33;95748.91;;;14.51;89.14
9525;BME280;15940;48.734;9.112;2023-08-06T08:30:00;95741.56;;;14.46;89.80
9525;BME280;15940;48.734;9.112;2023-08-06T08:32:27;95753.50;;;14.43;90.17
9525;BME280;15940;48.734;9.112;2023-08-06T08:34:55;95761.72;;;14.30;88.70
9525;BME280;15940;48.734;9.112;2023-08-06T08:37:22;95760.22;;;14.21;90.63
9525;BME280;15940;48.734;9.112;2023-08-06T08:39:51;95746.91;;;14.18;91.05
9525;BME280;15940;48.734;9.112;2023-08-06T08:42:19;95743.38;;;14.10;88.83
9525;BME280;15940;48.734;9.112;2023-08-06T08:44:47;95744.84;;;14.11;90.59
9525;BME280;15940;48.734;9.112;2023-08-06T08:47:15;95751.44;;;14.15;90.25
9525;BME280;15940;48.734;9.112;2023-08-06T08:49:42;95753.06;;;14.32;90.41
9525;BME280;15940;48.734;9.112;2023-08-06T08:52:11;95754.28;;;14.30;89.78
9525;BME280;15940;48.734;9.112;2023-08-06T08:54:39;95757.53;;;14.63;90.94
9525;BME280;15940;48.734;9.112;2023-08-06T08:57:07;95759.25;;;14.53;89.45
9525;BME280;15940;48.734;9.112;2023-08-06T08:59:34;95753.47;;;14.56;89.64
9525;BME280;15940;48.734;9.112;2023-08-06T09:02:03;95756.97;;;14.44;90.40
9525;BME280;15940;48.734;9.112;2023-08-06T09:04:31;95750.78;;;14.43;90.05
9525;BME280;15940;48.734;9.112;2023-08-06T09:07:00;95746.72;;;14.50;90.89
9525;BME280;15940;48.734;9.112;2023-08-06T09:09:31;95754.25;;;14.65;90.47
9525;BME280;15940;48.734;9.112;2023-08-06T09:12:12;95751.50;;;14.85;86.79
9525;BME280;15940;48.734;9.112;2023-08-06T09:14:39;95758.00;;;15.03;89.48
9525;BME280;15940;48.734;9.112;2023-08-06T09:17:06;95755.47;;;15.05;86.13
9525;BME280;15940;48.734;9.112;2023-08-06T09:19:33;95763.47;;;15.03;85.50
9525;BME280;15940;48.734;9.112;2023-08-06T09:22:00;95751.63;;;15.01;84.92
9525;BME280;15940;48.734;9.112;2023-08-06T09:24:28;95755.63;;;15.00;87.08
9525;BME280;15940;48.734;9.112;2023-08-06T09:26:55;95753.50;;;14.85;86.80
9525;BME280;15940;48.734;9.112;2023-08-06T09:29:23;95761.75;;;14.93;85.70
9525;BME280;15940;48.734;9.112;2023-08-06T09:31:51;95773.78;;;14.97;87.44
9525;BME280;15940;48.734;9.112;2023-08-06T09:34:19;95769.75;;;15.19;88.27
9525;BME280;15940;48.734;9.112;2023-08-06T09:36:51;95766.47;;;15.21;87.10
9525;BME280;15940;48.734;9.112;2023-08-06T09:39:21;95778.81;;;15.14;87.63
9525;BME280;15940;48.734;9.112;2023-08-06T09:41:48;95772.06;;;15.15;88.63
9525;BME280;15940;48.734;9.112;2023-08-06T09:44:26;95776.31;;;15.24;87.67
9525;BME280;15940;48.734;9.112;2023-08-06T09:46:55;95780.56;;;15.32;86.80
9525;BME280;15940;48.734;9.112;2023-08-06T09:49:26;95772.00;;;15.28;86.91
9525;BME280;15940;48.734;9.112;2023-08-06T09:51:57;95775.34;;;15.42;86.66
9525;BME280;15940;48.734;9.112;2023-08-06T09:54:26;95775.00;;;15.46;87.52
9525;BME280;15940;48.734;9.112;2023-08-06T09:56:54;95767.00;;;15.48;86.79
9525;BME280;15940;48.734;9.112;2023-08-06T09:59:24;95769.34;;;15.43;88.36
9525;BME280;15940;48.734;9.112;2023-08-06T10:01:51;95769.69;;;15.40;87.75
9525;BME280;15940;48.734;9.112;2023-08-06T10:04:24;95785.03;;;15.22;86.60
9525;BME280;15940;48.734;9.112;2023-08-06T10:06:51;95771.63;;;15.03;88.22
9525;BME280;15940;48.734;9.112;2023-08-06T10:09:19;95788.47;;;14.94;89.33
9525;BME280;15940;48.734;9.112;2023-08-06T10:11:51;95791.38;;;14.89;89.61
9525;BME280;15940;48.734;9.112;2023-08-06T10:14:25;95797.31;;;14.87;91.13
9525;BME280;15940;48.734;9.112;2023-08-06T10:16:57;95786.63;;;14.89;91.33
9525;BME280;15940;48.734;9.112;2023-08-06T10:19:26;95780.78;;;14.85;89.92
9525;BME280;15940;48.734;9.112;2023-08-06T10:22:09;95795.06;;;14.78;89.75
9525;BME280;15940;48.734;9.112;2023-08-06T10:24:50;95804.50;;;14.77;90.63
9525;BME280;15940;48.734;9.112;2023-08-06T10:27:23;95800.19;;;14.81;91.09
9525;BME280;15940;48.734;9.112;2023-08-06T10:29:56;95802.72;;;14.79;91.27
9525;BME280;15940;48.734;9.112;2023-08-06T10:32:47;95806.31;;;14.95;91.12
9525;BME280;15940;48.734;9.112;2023-08-06T10:35:34;95800.06;;;14.87;90.50
9525;BME280;15940;48.734;9.112;2023-08-06T10:38:07;95798.41;;;14.84;90.44
9525;BME280;15940;48.734;9.112;2023-08-06T10:40:39;95816.09;;;14.91;90.71
9525;BME280;15940;48.734;9.112;2023-08-06T10:43:06;95800.28;;;14.89;90.44
9525;BME280;15940;48.734;9.112;2023-08-06T10:45:37;95799.84;;;14.85;89.40
9525;BME280;15940;48.734;9.112;2023-08-06T10:48:07;95797.00;;;14.91;90.60
9525;BME280;15940;48.734;9.112;2023-08-06T10:50:34;95811.38;;;14.91;90.73
9525;BME280;15940;48.734;9.112;2023-08-06T10:53:04;95815.91;;;14.89;91.56
9525;BME280;15940;48.734;9.112;2023-08-06T10:55:32;95813.94;;;14.97;90.36
9525;BME280;15940;48.734;9.112;2023-08-06T10:57:59;95812.75;;;15.05;89.72
9525;BME280;15940;48.734;9.112;2023-08-06T11:00:26;95822.91;;;15.05;89.80
9525;BME280;15940;48.734;9.112;2023-08-06T11:02:54;95818.66;;;15.17;89.13
9525;BME280;15940;48.734;9.112;2023-08-06T11:05:22;95825.97;;;15.22;89.88
9525;BME280;15940;48.734;9.112;2023-08-06T11:07:51;95819.41;;;15.18;89.92
9525;BME280;15940;48.734;9.112;2023-08-06T11:10:18;95825.09;;;15.06;88.01
9525;BME280;15940;48.734;9.112;2023-08-06T11:12:45;95828.25;;;14.90;87.39
9525;BME280;15940;48.734;9.112;2023-08-06T11:15:12;95836.19;;;14.80;89.00
9525;BME280;15940;48.734;9.112;2023-08-06T11:17:42;95838.03;;;14.64;89.44
9525;BME280;15940;48.734;9.112;2023-08-06T11:20:10;95839.94;;;14.56;89.86
9525;BME280;15940;48.734;9.112;2023-08-06T11:22:38;95851.50;;;14.49;90.91
9525;BME280;15940;48.734;9.112;2023-08-06T11:25:06;95849.59;;;14.44;91.30
9525;BME280;15940;48.734;9.112;2023-08-06T11:27:34;95858.53;;;14.78;93.94
9525;BME280;15940;48.734;9.112;2023-08-06T11:30:05;95847.59;;;15.20;93.38
9525;BME280;15940;48.734;9.112;2023-08-06T11:32:32;95851.69;;;15.34;88.42
9525;BME280;15940;48.734;9.112;2023-08-06T11:35:11;95861.81;;;15.05;87.43
9525;BME280;15940;48.734;9.112;2023-08-06T11:37:43;95859.56;;;14.75;86.20
9525;BME280;15940;48.734;9.112;2023-08-06T11:40:10;95865.75;;;14.76;87.19
9525;BME280;15940;48.734;9.112;2023-08-06T11:42:38;95869.00;;;14.53;85.80
9525;BME280;15940;48.734;9.112;2023-08-06T11:45:06;95874.13;;;14.44;87.25
9525;BME280;15940;48.734;9.112;2023-08-06T11:47:38;95875.50;;;14.50;87.43
9525;BME280;15940;48.734;9.112;2023-08-06T11:50:06;95878.97;;;14.51;86.03
9525;BME280;15940;48.734;9.112;2023-08-06T11:52:35;95867.38;;;14.24;85.22
9525;BME280;15940;48.734;9.112;2023-08-06T11:55:08;95876.28;;;14.11;86.34
9525;BME280;15940;48.734;9.112;2023-08-06T11:57:36;95880.38;;;14.18;88.14
9525;BME280;15940;48.734;9.112;2023-08-06T12:00:07;95882.47;;;14.12;86.36
9525;BME280;15940;48.734;9.112;2023-08-06T12:02:34;95889.19;;;13.97;85.60
9525;BME280;15940;48.734;9.112;2023-08-06T12:05:05;95891.16;;;14.23;88.28
9525;BME280;15940;48.734;9.112;2023-08-06T12:07:42;95895.13;;;14.22;85.32
9525;BME280;15940;48.734;9.112;2023-08-06T12:10:09;95900.59;;;14.22;85.08
9525;BME280;15940;48.734;9.112;2023-08-06T12:12:39;95908.31;;;14.18;83.59
9525;BME280;15940;48.734;9.112;2023-08-06T12:15:10;95905.19;;;14.27;84.33
9525;BME280;15940;48.734;9.112;2023-08-06T12:17:38;95914.69;;;14.34;85.12
9525;BME280;15940;48.734;9.112;2023-08-06T12:20:07;95909.66;;;14.38;83.73
9525;BME280;15940;48.734;9.112;2023-08-06T12:22:38;95907.16;;;14.40;84.69
9525;BME280;15940;48.734;9.112;2023-08-06T12:25:10;95911.13;;;14.52;81.52
9525;BME280;15940;48.734;9.112;2023-08-06T12:27:41;95904.09;;;14.57;84.03
9525;BME280;15940;48.734;9.112;2023-08-06T12:30:09;95911.72;;;14.58;83.53
9525;BME280;15940;48.734;9.112;2023-08-06T12:32:38;95908.25;;;14.71;84.08
9525;BME280;15940;48.734;9.112;2023-08-06T12:35:08;95907.91;;;14.96;83.99
9525;BME280;15940;48.734;9.112;2023-08-06T12:37:35;95921.16;;;15.33;82.24
9525;BME280;15940;48.734;9.112;2023-08-06T12:40:08;95921.44;;;15.64;80.72
9525;BME280;15940;48.734;9.112;2023-08-06T12:42:36;95917.50;;;16.09;79.90
9525;BME280;15940;48.734;9.112;2023-08-06T12:45:05;95910.78;;;16.10;78.07
9525;BME280;15940;48.734;9.112;2023-08-06T12:47:32;95920.19;;;15.93;77.50
9525;BME280;15940;48.734;9.112;2023-08-06T12:49:59;95916.47;;;15.83;78.28
9525;BME280;15940;48.734;9.112;2023-08-06T12:52:26;95921.63;;;15.66;77.67
9525;BME280;15940;48.734;9.112;2023-08-06T12:54:53;95927.34;;;15.34;77.33
9525;BME280;15940;48.734;9.112;2023-08-06T12:57:21;95939.53;;;15.33;78.27
9525;BME280;15940;48.734;9.112;2023-08-06T12:59:48;95938.34;;;15.21;77.44
9525;BME280;15940;48.734;9.112;2023-08-06T13:02:23;95933.47;;;15.06;77.95
9525;BME280;15940;48.734;9.112;2023-08-06T13:04:55;95945.97;;;15.01;76.96
9525;BME280;15940;48.734;9.112;2023-08-06T13:07:22;95957.53;;;14.94;76.61
9525;BME280;15940;48.734;9.112;2023-08-06T13:09:49;95945.59;;;14.97;79.04
9525;BME280;15940;48.734;9.112;2023-08-06T13:12:16;95942.38;;;15.06;77.39
9525;BME280;15940;48.734;9.112;2023-08-06T13:14:47;95942.00;;;15.23;78.21
9525;BME280;15940;48.734;9.112;2023-08-06T13:17:19;95956.97;;;15.51;76.41
9525;BME280;15940;48.734;9.112;2023-08-06T13:19:46;95947.84;;;15.69;74.98
9525;BME280;15940;48.734;9.112;2023-08-06T13:22:13;95953.22;;;15.82;75.04